This is the latest recevied weather packets stored in our database for station/object Kirchdorf. If no packets are shown the sender has not sent any weather packets the latest 1 day(s).
| Time | Temp. | Humidity | Pressure | Rain* | Wind** | Luminosity | Snow |
|---|---|---|---|---|---|---|---|
| 1836273905 | 12.22° C | 96% | 1022.4 hPa | 0 mm | 2.68 m/s, 169° | - | - |
| 1778016731 | 10.56° C | 93% | 1009.5 hPa | 1.02 mm | 2.24 m/s, 169° | - | - |
| 1778014935 | 11.67° C | 91% | 1009.5 hPa | 1.02 mm | 2.24 m/s, 200° | - | - |
| 1778013129 | 11.67° C | 89% | 1009.4 hPa | 1.02 mm | 3.58 m/s, 240° | - | - |
| 1778011330 | 13.33° C | 81% | 1009.5 hPa | 0.25 mm | 5.81 m/s, 171° | - | - |
| 1778009529 | 15° C | 76% | 1009.1 hPa | 0.25 mm | 7.6 m/s, 256° | - | - |
| 1778007735 | 15° C | 75% | 1008.4 hPa | 0.25 mm | 5.36 m/s, 244° | - | - |
| 1778005932 | 15° C | 76% | 1008.2 hPa | 0.25 mm | 3.13 m/s, 215° | - | - |
| 1778004131 | 15.56° C | 74% | 1007.7 hPa | 0.25 mm | 1.79 m/s, 254° | - | - |
| 1778002330 | 15.56° C | 75% | 1007.4 hPa | 0.25 mm | 1.79 m/s, 306° | - | - |
| 1778000530 | 15.56° C | 75% | 1006.9 hPa | 0.25 mm | 0.89 m/s, 340° | - | - |
| 1777998731 | 15.56° C | 74% | 1007.1 hPa | 0.25 mm | 1.79 m/s, 59° | - | - |
| 1777995130 | 16.67° C | 69% | 1007.3 hPa | 0.25 mm | 4.47 m/s, 349° | - | - |
| 1777993336 | 16.67° C | 73% | 1007.1 hPa | 0.25 mm | 4.47 m/s, 347° | - | - |
| 1777991532 | 16.67° C | 68% | 1007.2 hPa | 0.25 mm | 4.92 m/s, 325° | - | - |
| 1777989730 | 16.67° C | 78% | 1007.2 hPa | 0.25 mm | 3.58 m/s, 344° | - | - |
| 1777987930 | 16.67° C | 80% | 1007.2 hPa | 0.25 mm | 4.92 m/s, 346° | - | - |
| 1777986130 | 15.56° C | 87% | 1007.9 hPa | 0.25 mm | 4.47 m/s, 325° | - | - |
| 1777984330 | 15° C | 88% | 1008.1 hPa | 0.25 mm | 3.13 m/s, 349° | - | - |
| 1777982530 | 16.11° C | 82% | 1008.3 hPa | 0 mm | 4.92 m/s, 286° | - | - |
| 1777980730 | 18.33° C | 70% | 1008 hPa | 0 mm | 5.36 m/s, 259° | - | - |
| 1777978931 | 18.89° C | 65% | 1007.6 hPa | 0 mm | 4.02 m/s, 318° | - | - |
| 1777977131 | 18.89° C | 63% | 1007.5 hPa | 0 mm | 1.79 m/s, 260° | - | - |
| 1777975332 | 17.78° C | 61% | 1007.7 hPa | 0 mm | 1.34 m/s, 0° | - | - |
| 1777973532 | 18.89° C | 62% | 1007.8 hPa | 0 mm | 1.34 m/s, 276° | - | - |
* Rain since midnight (hover to see other rain measurements)
** Current wind speed in m/s (hover to see current wind gust speed)